Time;durP1;ratioP1;P1;durP2;ratioP2;P2;SDS_P1;SDS_P2;PMS_P1;PMS_P2;Temp;Humidity;BMP_temperature;BMP_pressure;BME280_temperature;BME280_humidity;BME280_pressure;Samples;Min_cycle;Max_cycle;Signal;HPM_P1;HPM_P2
2021/01/07 00:01:52;;;;;;;0.07;0.07;;;;;;;;;;5036918;28;20187;-68
2021/01/07 00:04:19;;;;;;;0.37;0.37;;;;;;;;;;5044003;28;20230;-69
2021/01/07 00:06:46;;;;;;;0.00;0.00;;;;;;;;;;5037457;28;20556;-69
2021/01/07 00:09:12;;;;;;;0.00;0.00;;;;;;;;;;5036500;28;20212;-70
2021/01/07 00:11:40;;;;;;;0.00;0.00;;;;;;;;;;5038870;28;20213;-70
2021/01/07 00:14:10;;;;;;;0.00;0.00;;;;;;;;;;5031357;28;20178;-67
2021/01/07 00:16:37;;;;;;;0.33;0.33;;;;;;;;;;5036455;28;20551;-70
2021/01/07 00:19:04;;;;;;;0.00;0.00;;;;;;;;;;5039657;28;20267;-68
2021/01/07 00:21:32;;;;;;;0.00;0.00;;;;;;;;;;5040152;28;20229;-67
2021/01/07 00:23:59;;;;;;;0.00;0.00;;;;;;;;;;5034225;28;20296;-69
2021/01/07 00:26:25;;;;;;;0.00;0.00;;;;;;;;;;5036097;28;20195;-69
2021/01/07 00:28:52;;;;;;;0.10;0.10;;;;;;;;;;5040934;28;20233;-68
2021/01/07 00:31:19;;;;;;;0.00;0.00;;;;;;;;;;5039700;28;20193;-68
2021/01/07 00:33:47;;;;;;;0.03;0.03;;;;;;;;;;5015856;28;20181;-67
2021/01/07 00:36:17;;;;;;;0.00;0.00;;;;;;;;;;5041004;28;20185;-67
2021/01/07 00:38:43;;;;;;;0.00;0.00;;;;;;;;;;5037665;28;20228;-65
2021/01/07 00:41:10;;;;;;;0.00;0.00;;;;;;;;;;5036611;28;20256;-69
2021/01/07 00:43:37;;;;;;;0.00;0.00;;;;;;;;;;5037370;28;20182;-67
2021/01/07 00:46:08;;;;;;;0.00;0.00;;;;;;;;;;5038674;28;20228;-67
2021/01/07 00:48:36;;;;;;;0.00;0.00;;;;;;;;;;5032824;28;20183;-68
2021/01/07 00:51:06;;;;;;;0.00;0.00;;;;;;;;;;5036273;28;20184;-68
2021/01/07 00:53:32;;;;;;;0.20;0.20;;;;;;;;;;5036533;28;20182;-66
2021/01/07 00:55:59;;;;;;;0.00;0.00;;;;;;;;;;5037210;28;20178;-65
2021/01/07 00:58:26;;;;;;;0.10;0.10;;;;;;;;;;5033818;28;20225;-67
2021/01/07 01:00:53;;;;;;;0.53;0.53;;;;;;;;;;5038486;28;20263;-68
2021/01/07 01:03:21;;;;;;;0.43;0.43;;;;;;;;;;5034995;28;20707;-67
2021/01/07 01:05:49;;;;;;;0.30;0.30;;;;;;;;;;5042628;28;20173;-64
2021/01/07 01:08:16;;;;;;;0.10;0.10;;;;;;;;;;5040609;28;20228;-66
2021/01/07 01:10:49;;;;;;;0.00;0.00;;;;;;;;;;5040106;28;20659;-64
2021/01/07 01:13:16;;;;;;;0.00;0.00;;;;;;;;;;5034929;28;20203;-66
2021/01/07 01:15:44;;;;;;;0.13;0.13;;;;;;;;;;5037768;28;20521;-64
2021/01/07 01:18:11;;;;;;;0.00;0.00;;;;;;;;;;5038833;28;20233;-66
2021/01/07 01:20:39;;;;;;;0.37;0.37;;;;;;;;;;5038900;28;20271;-66
2021/01/07 01:23:06;;;;;;;0.20;0.20;;;;;;;;;;5041237;28;20198;-65
2021/01/07 01:25:33;;;;;;;0.27;0.27;;;;;;;;;;5034243;28;20517;-65
2021/01/07 01:27:59;;;;;;;0.00;0.00;;;;;;;;;;5037306;28;20206;-65
2021/01/07 01:30:26;;;;;;;0.30;0.30;;;;;;;;;;5038458;28;20206;-66
2021/01/07 01:32:52;;;;;;;0.50;0.50;;;;;;;;;;5037837;28;20178;-65
2021/01/07 01:35:19;;;;;;;0.00;0.00;;;;;;;;;;5038497;28;20181;-67
2021/01/07 01:37:45;;;;;;;0.00;0.00;;;;;;;;;;5040129;28;20223;-66
2021/01/07 01:40:13;;;;;;;0.20;0.20;;;;;;;;;;5038725;28;20190;-65
2021/01/07 01:42:40;;;;;;;0.27;0.23;;;;;;;;;;5034882;28;20199;-66
2021/01/07 01:45:10;;;;;;;0.00;0.00;;;;;;;;;;5038585;28;20194;-66
2021/01/07 01:47:36;;;;;;;0.00;0.00;;;;;;;;;;5036183;28;20193;-65
2021/01/07 01:50:03;;;;;;;0.00;0.00;;;;;;;;;;5033338;28;20185;-65
2021/01/07 01:52:32;;;;;;;0.30;0.30;;;;;;;;;;5037751;28;20202;-66
2021/01/07 01:54:59;;;;;;;0.00;0.00;;;;;;;;;;5037778;28;20270;-66
2021/01/07 01:57:27;;;;;;;0.00;0.00;;;;;;;;;;5033269;28;20247;-67
2021/01/07 01:59:53;;;;;;;0.57;0.57;;;;;;;;;;5037573;28;20636;-66
2021/01/07 02:02:20;;;;;;;0.00;0.00;;;;;;;;;;5034656;28;20204;-66
2021/01/07 02:04:47;;;;;;;0.00;0.00;;;;;;;;;;5037784;28;20189;-67
2021/01/07 02:07:16;;;;;;;0.00;0.00;;;;;;;;;;5033747;28;20205;-70
2021/01/07 02:09:44;;;;;;;0.00;0.00;;;;;;;;;;5033994;28;20206;-65
2021/01/07 02:12:11;;;;;;;0.00;0.00;;;;;;;;;;5034266;28;20185;-68
2021/01/07 02:14:45;;;;;;;0.00;0.00;;;;;;;;;;5038551;28;20703;-66
2021/01/07 02:17:12;;;;;;;0.00;0.00;;;;;;;;;;5037876;28;20435;-67
2021/01/07 02:19:39;;;;;;;0.20;0.20;;;;;;;;;;5034642;28;20226;-64
2021/01/07 02:22:06;;;;;;;1.17;1.17;;;;;;;;;;5030122;28;20201;-66
2021/01/07 02:24:33;;;;;;;0.00;0.00;;;;;;;;;;5032020;28;20192;-67
2021/01/07 02:27:03;;;;;;;0.00;0.00;;;;;;;;;;5036898;28;20198;-67
2021/01/07 02:29:29;;;;;;;0.10;0.10;;;;;;;;;;5038381;28;20711;-66
2021/01/07 02:31:56;;;;;;;0.20;0.20;;;;;;;;;;5031077;28;20631;-66
2021/01/07 02:34:22;;;;;;;0.00;0.00;;;;;;;;;;5039394;28;20186;-65
2021/01/07 02:36:49;;;;;;;0.00;0.00;;;;;;;;;;5036570;28;20228;-68
2021/01/07 02:39:16;;;;;;;0.00;0.00;;;;;;;;;;5039643;28;20242;-67
2021/01/07 02:41:49;;;;;;;0.00;0.00;;;;;;;;;;5038248;28;20204;-65
2021/01/07 02:44:16;;;;;;;0.00;0.00;;;;;;;;;;5032164;28;20216;-67
2021/01/07 02:46:42;;;;;;;0.50;0.50;;;;;;;;;;5039978;28;20185;-65
2021/01/07 02:49:09;;;;;;;0.10;0.10;;;;;;;;;;5033064;28;20215;-67
2021/01/07 02:51:38;;;;;;;0.00;0.00;;;;;;;;;;5033575;28;20773;-66
2021/01/07 02:54:05;;;;;;;0.00;0.00;;;;;;;;;;5041311;28;20517;-66
2021/01/07 02:56:32;;;;;;;0.97;0.73;;;;;;;;;;5040211;28;20269;-68
2021/01/07 02:58:59;;;;;;;0.00;0.00;;;;;;;;;;5039173;28;20185;-67
2021/01/07 03:01:25;;;;;;;0.00;0.00;;;;;;;;;;5039577;28;20171;-68
2021/01/07 03:03:55;;;;;;;0.00;0.00;;;;;;;;;;5039469;28;20185;-68
2021/01/07 03:06:22;;;;;;;0.00;0.00;;;;;;;;;;5038102;28;20186;-68
2021/01/07 03:08:49;;;;;;;0.00;0.00;;;;;;;;;;5035843;28;20195;-66
2021/01/07 03:11:16;;;;;;;0.00;0.00;;;;;;;;;;5039344;28;20256;-66
2021/01/07 03:13:42;;;;;;;0.00;0.00;;;;;;;;;;5038956;28;20722;-68
2021/01/07 03:16:09;;;;;;;0.00;0.00;;;;;;;;;;5039488;28;20270;-67
2021/01/07 03:18:35;;;;;;;0.10;0.10;;;;;;;;;;5036804;28;20319;-67
2021/01/07 14:09:26;;;;;;;0.00;0.00;;;;;;;;;;5066910;27;20598;-62
2021/01/07 14:11:53;;;;;;;5.43;2.73;;;;;;;;;;5054214;28;20178;-62
2021/01/07 14:14:20;;;;;;;0.00;0.00;;;;;;;;;;5055210;28;20174;-65
2021/01/07 14:16:47;;;;;;;0.10;0.10;;;;;;;;;;5055858;28;20215;-64
2021/01/07 14:19:14;;;;;;;0.00;0.00;;;;;;;;;;5057117;28;20176;-63
2021/01/07 14:21:42;;;;;;;0.73;0.23;;;;;;;;;;5060910;28;20664;-65
2021/01/07 14:24:12;;;;;;;0.00;0.00;;;;;;;;;;5064457;28;20175;-63
2021/01/07 14:26:57;;;;;;;0.00;0.00;;;;;;;;;;5055681;28;20656;-62
2021/01/07 14:29:28;;;;;;;4.70;4.40;;;;;;;;;;5057727;28;20182;-64
2021/01/07 14:31:55;;;;;;;0.00;0.00;;;;;;;;;;5061519;28;20187;-63
2021/01/07 14:34:22;;;;;;;0.10;0.10;;;;;;;;;;5059319;28;20179;-64
2021/01/07 14:36:49;;;;;;;0.00;0.00;;;;;;;;;;5057180;28;20704;-63
2021/01/07 14:39:17;;;;;;;0.00;0.00;;;;;;;;;;5056091;28;20183;-64
2021/01/07 14:41:43;;;;;;;0.07;0.07;;;;;;;;;;5065570;28;20508;-61
2021/01/07 14:44:10;;;;;;;0.00;0.00;;;;;;;;;;5056708;28;20257;-61
2021/01/07 14:46:37;;;;;;;0.10;0.10;;;;;;;;;;5058522;28;20244;-63
2021/01/07 14:49:04;;;;;;;0.00;0.00;;;;;;;;;;5056020;28;20260;-62
2021/01/07 14:51:31;;;;;;;0.00;0.00;;;;;;;;;;5056495;28;20191;-61
2021/01/07 14:54:05;;;;;;;1.60;0.20;;;;;;;;;;5057405;28;20193;-63
2021/01/07 14:56:39;;;;;;;0.00;0.00;;;;;;;;;;5054722;28;20183;-66
2021/01/07 14:59:28;;;;;;;0.20;0.13;;;;;;;;;;5058765;28;20191;-63
2021/01/07 15:01:58;;;;;;;0.00;0.00;;;;;;;;;;5056664;28;20187;-65
2021/01/07 15:04:26;;;;;;;0.00;0.00;;;;;;;;;;5057577;28;20243;-62
2021/01/07 15:07:04;;;;;;;0.10;0.10;;;;;;;;;;5058727;28;20651;-65
2021/01/07 15:09:32;;;;;;;0.20;0.20;;;;;;;;;;5051553;28;20190;-62
2021/01/07 15:12:14;;;;;;;0.10;0.10;;;;;;;;;;5057009;28;20186;-62
2021/01/07 15:15:01;;;;;;;0.10;0.10;;;;;;;;;;5055646;28;20638;-62
2021/01/07 15:17:36;;;;;;;0.00;0.00;;;;;;;;;;5055960;28;20183;-60
2021/01/07 15:20:17;;;;;;;0.53;0.53;;;;;;;;;;5052641;28;20197;-62
2021/01/07 15:22:48;;;;;;;0.03;0.03;;;;;;;;;;5041288;28;20264;-63
2021/01/07 15:25:17;;;;;;;0.00;0.00;;;;;;;;;;5041558;28;20276;-61
2021/01/07 15:27:56;;;;;;;0.40;0.40;;;;;;;;;;5042538;28;20901;-61
2021/01/07 15:30:25;;;;;;;0.00;0.00;;;;;;;;;;5037124;28;20725;-63
2021/01/07 15:32:56;;;;;;;0.00;0.00;;;;;;;;;;5043351;28;20292;-63
2021/01/07 15:35:24;;;;;;;1.50;0.10;;;;;;;;;;5044986;28;21006;-62
2021/01/07 15:37:53;;;;;;;0.00;0.00;;;;;;;;;;5051262;28;20183;-64
2021/01/07 15:40:38;;;;;;;0.03;0.03;;;;;;;;;;5037764;28;21352;-63
2021/01/07 15:43:34;;;;;;;0.10;0.10;;;;;;;;;;5043974;28;20716;-64
2021/01/07 15:46:29;;;;;;;0.27;0.27;;;;;;;;;;5035749;28;20195;-61
2021/01/07 15:49:02;;;;;;;0.00;0.00;;;;;;;;;;5041650;28;20203;-62
2021/01/07 15:51:35;;;;;;;0.03;0.03;;;;;;;;;;5052051;28;20274;-61
2021/01/07 15:54:11;;;;;;;0.00;0.00;;;;;;;;;;5055477;28;20176;-64
2021/01/07 15:56:58;;;;;;;0.60;0.20;;;;;;;;;;5036575;28;20842;-61
2021/01/07 15:59:27;;;;;;;1.03;0.57;;;;;;;;;;5018879;28;20200;-63
2021/01/07 16:01:56;;;;;;;3.73;0.40;;;;;;;;;;5033313;28;20207;-63
2021/01/07 16:04:25;;;;;;;1.10;0.30;;;;;;;;;;5037499;28;20710;-63
2021/01/07 16:07:18;;;;;;;0.10;0.10;;;;;;;;;;5034939;28;20229;-66
2021/01/07 16:09:44;;;;;;;0.00;0.00;;;;;;;;;;5038428;28;20195;-64
2021/01/07 16:12:11;;;;;;;0.30;0.30;;;;;;;;;;5040226;28;20472;-61
2021/01/07 16:14:38;;;;;;;0.00;0.00;;;;;;;;;;5044366;28;20183;-63
2021/01/07 16:17:05;;;;;;;0.00;0.00;;;;;;;;;;5036341;28;20187;-63
2021/01/07 16:19:33;;;;;;;1.70;0.30;;;;;;;;;;5039065;28;20656;-65
2021/01/07 16:22:18;;;;;;;0.00;0.00;;;;;;;;;;5050202;28;20600;-64
2021/01/07 16:24:51;;;;;;;0.10;0.10;;;;;;;;;;5046185;28;20200;-64
2021/01/07 16:27:27;;;;;;;0.07;0.07;;;;;;;;;;5041689;28;20262;-65
2021/01/07 16:29:54;;;;;;;0.13;0.13;;;;;;;;;;5041253;28;20194;-65
2021/01/07 16:32:21;;;;;;;0.00;0.00;;;;;;;;;;5043104;28;20187;-64
2021/01/07 16:34:48;;;;;;;0.20;0.20;;;;;;;;;;5047466;28;20202;-63
2021/01/07 16:37:17;;;;;;;0.10;0.10;;;;;;;;;;5043138;28;20180;-63
2021/01/07 16:39:45;;;;;;;0.07;0.07;;;;;;;;;;5037931;28;20222;-63
2021/01/07 16:42:12;;;;;;;1.20;0.30;;;;;;;;;;5042991;28;20191;-63
2021/01/07 16:44:39;;;;;;;0.00;0.00;;;;;;;;;;5031664;28;20543;-63
2021/01/07 16:47:06;;;;;;;0.00;0.00;;;;;;;;;;5034385;28;20291;-63
2021/01/07 16:49:33;;;;;;;0.00;0.00;;;;;;;;;;5036911;28;20230;-62
2021/01/07 16:52:00;;;;;;;0.00;0.00;;;;;;;;;;5043184;28;20202;-61
2021/01/07 16:54:30;;;;;;;3.40;0.47;;;;;;;;;;5036211;28;20172;-65
2021/01/07 16:56:57;;;;;;;0.23;0.23;;;;;;;;;;5037580;28;20543;-64
2021/01/07 16:59:23;;;;;;;0.10;0.10;;;;;;;;;;5040477;28;20184;-63
2021/01/07 17:01:50;;;;;;;0.00;0.00;;;;;;;;;;5036054;28;20187;-61
2021/01/07 17:04:17;;;;;;;0.63;0.30;;;;;;;;;;5032001;28;20179;-63
2021/01/07 17:06:43;;;;;;;0.00;0.00;;;;;;;;;;5030849;28;20188;-64
2021/01/07 17:09:10;;;;;;;0.00;0.00;;;;;;;;;;5032070;28;20627;-63
2021/01/07 17:11:37;;;;;;;0.00;0.00;;;;;;;;;;5033693;28;20198;-64
2021/01/07 17:14:04;;;;;;;0.00;0.00;;;;;;;;;;5034280;28;20274;-65
2021/01/07 17:16:33;;;;;;;0.00;0.00;;;;;;;;;;5034499;28;20202;-65
2021/01/07 17:18:59;;;;;;;0.00;0.00;;;;;;;;;;5037941;28;20188;-63
2021/01/07 17:21:26;;;;;;;0.10;0.10;;;;;;;;;;5036344;28;20176;-63
2021/01/07 17:23:53;;;;;;;0.07;0.07;;;;;;;;;;5038677;28;20252;-63
2021/01/07 17:26:27;;;;;;;0.00;0.00;;;;;;;;;;5042209;28;20187;-62
2021/01/07 17:28:54;;;;;;;0.00;0.00;;;;;;;;;;5033241;22;20872;-68
2021/01/07 17:31:21;;;;;;;0.00;0.00;;;;;;;;;;4985663;28;20523;-68
2021/01/07 17:33:47;;;;;;;0.33;0.33;;;;;;;;;;4987055;28;20186;-67
2021/01/07 17:36:14;;;;;;;19.87;2.83;;;;;;;;;;4992174;28;20689;-67
2021/01/07 17:38:41;;;;;;;0.00;0.00;;;;;;;;;;5012543;28;20196;-67
2021/01/07 17:41:08;;;;;;;0.00;0.00;;;;;;;;;;4992225;28;21060;-68
2021/01/07 17:43:36;;;;;;;0.10;0.10;;;;;;;;;;4987034;28;20182;-70
2021/01/07 17:46:02;;;;;;;0.00;0.00;;;;;;;;;;4995184;28;21373;-70
2021/01/07 17:48:29;;;;;;;0.00;0.00;;;;;;;;;;5012501;28;20208;-69
2021/01/07 17:50:56;;;;;;;0.00;0.00;;;;;;;;;;5001549;28;20219;-68
2021/01/07 17:53:23;;;;;;;2.53;0.20;;;;;;;;;;4994172;28;20750;-68
2021/01/07 17:55:50;;;;;;;0.40;0.40;;;;;;;;;;4998403;28;20212;-68
2021/01/07 17:58:16;;;;;;;0.00;0.00;;;;;;;;;;4996728;28;20212;-69
2021/01/07 18:00:43;;;;;;;0.00;0.00;;;;;;;;;;4994481;28;20254;-68
2021/01/07 18:03:10;;;;;;;0.10;0.10;;;;;;;;;;5001780;28;20184;-68
